This is the latest recevied weather packets stored in our database for station/object AB4CZ-1. If no packets are shown the sender has not sent any weather packets the latest 10 day(s).
| Time | Temp. | Humidity | Pressure | Rain* | Wind** | Luminosity | Snow |
|---|---|---|---|---|---|---|---|
| 1777906592 | 21.67° C | 48% | 1019.2 hPa | 0 mm | - | - | - |
| 1777906292 | 21.67° C | 48% | 1019.2 hPa | 0 mm | - | - | - |
| 1777906027 | 22.22° C | 47% | 1019.2 hPa | 0 mm | - | - | - |
| 1777905992 | 22.22° C | 47% | 1019.2 hPa | 0 mm | - | - | - |
| 1777905692 | 22.22° C | 48% | 1019.3 hPa | 0 mm | - | - | - |
| 1777905092 | 21.11° C | 51% | 1019.3 hPa | 0 mm | - | - | - |
| 1777904492 | 20.56° C | 55% | 1019.4 hPa | 0 mm | - | - | - |
| 1777903892 | 20° C | 55% | 1019.4 hPa | 0 mm | - | - | - |
| 1777903594 | 20° C | 56% | 1019.4 hPa | 0 mm | - | - | - |
| 1777903292 | 20° C | 55% | 1019.4 hPa | 0 mm | - | - | - |
| 1777902738 | 20° C | 54% | 1019.4 hPa | 0 mm | - | - | - |
| 1777902692 | 20° C | 54% | 1019.4 hPa | 0 mm | - | - | - |
| 1777902092 | 20.56° C | 57% | 1019.5 hPa | 0 mm | - | - | - |
| 1777901792 | 20° C | 57% | 1019.5 hPa | 0 mm | - | - | - |
| 1777901492 | 20° C | 59% | 1019.5 hPa | 0 mm | - | - | - |
| 1777900892 | 18.89° C | 61% | 1019.5 hPa | 0 mm | - | - | - |
| 1777900593 | 18.89° C | 63% | 1019.4 hPa | 0 mm | - | - | - |
| 1777900291 | 18.33° C | 64% | 1019.5 hPa | 0 mm | - | - | - |
| 1777899692 | 16.67° C | 72% | 1019.4 hPa | 0 mm | - | - | - |
| 1777899392 | 16.11° C | 75% | 1019.5 hPa | 0 mm | - | - | - |
| 1777899092 | 15.56° C | 77% | 1019.5 hPa | 0 mm | - | - | - |
| 1777898492 | 13.89° C | 84% | 1019.5 hPa | 0 mm | - | - | - |
| 1777897892 | 11.67° C | 96% | 1019.6 hPa | 0 mm | - | - | - |
| 1777897592 | 10.56° C | 97% | 1019.7 hPa | 0 mm | - | - | - |
| 1777897292 | 9.44° C | 97% | 1018.7 hPa | 0 mm | - | - | - |
* Rain latest hour (hover to see other rain measurements)
** Current wind speed in m/s (hover to see current wind gust speed)